Aérodrome :
LOGIN :

S'inscrire | Disclaimer

   EN    FR    IT 

 










Légende :    VFR   VFR Marginal   IFR   IFR Intensif   IFR Très Intensif
Visi : 
Plafond : 
>= 8 km
>= 3000ft
5 à 8 km
1000 à 3000 ft
1500m à 5 km
500 à 1000 ft
800 à 1500m
200 à 500 ft
< 800m
< 200 ft
Symboles :   Orages  Brouillard  Fortes neiges  Fortes précipitations  Vent > 20 kt
SIGMETs :   Divers  Orages  Givrage  Turbulence  Onde Orograph.  Cendres Volcan.






- Altitude de l'aérodrome : 236 ft
- Code IATA : MMX


ESMS - Malmö Sturup

DERNIER METAR :
  • 151820Z 10003KT 2500 BR BKN003 11/11 Q1007

METARs EXPIRÉS :
  • 151750Z 08007KT 3500 BR SCT004 12/11 Q1007
  • 151720Z 10005KT 6000 FEW003 12/11 Q1007
  • 151650Z 10006KT 9000 SCT007 12/11 Q1007
  • 151620Z 10007KT 9999 SCT008 13/12 Q1007
  • 151550Z 10008KT 8000 BKN009 13/12 Q1006

TAF TAF ESMS
Valide du 15 à 18h jusqu'au 16 à 18h UTC


151711Z 1518/1618 10005KT 8000 BKN008
TEMPO 1518/1520 3000 BR SCT008
BECMG 1520/1522 0500 FG BKN002
TEMPO 1522/1613 3000 BR SCT002 BKN005
BECMG 1613/1615 6000 NSW SCT005 BKN015
TEMPO 1615/1618 2000 RA BR BKN005
BECMG 1616/1618 27012KT



MET'MAP, la Météo Aéronautique d'un coup d'oeil ! - Copyright ORBIFLY Décembre 2007 - Disclaimer

ORBIFLY MET'MAP TEAM :

Programmation & Développement : Alexandra Zaïnal
Conception & Développement : Baudouin d'Aumeries
Co-Programmation & Développement : Marc-Olivier Méhu
Soutien technique & logistique : Manuel Goepfert

Contact : metmap@orbifly.com




SOURCES & CREDITS :

   NOAA